createdAt,value
2019-03-05T00:00:41.209Z,40.20
2019-03-05T00:03:10.107Z,40.30
2019-03-05T00:05:39.000Z,40.80
2019-03-05T00:08:07.837Z,41.00
2019-03-05T00:10:36.689Z,41.20
2019-03-05T00:13:05.680Z,42.00
2019-03-05T00:15:34.626Z,41.60
2019-03-05T00:18:03.473Z,41.70
2019-03-05T00:20:32.381Z,42.10
2019-03-05T00:23:01.232Z,42.50
2019-03-05T00:25:35.280Z,43.10
2019-03-05T00:28:25.430Z,43.20
2019-03-05T00:31:15.099Z,43.30
2019-03-05T00:34:04.395Z,43.50
2019-03-05T00:36:36.398Z,44.00
2019-03-05T00:39:30.961Z,43.80
2019-03-05T00:42:36.012Z,43.80
2019-03-05T00:45:13.939Z,44.00
2019-03-05T00:47:45.718Z,44.30
2019-03-05T00:50:37.494Z,44.30
2019-03-05T00:53:27.513Z,44.40
2019-03-05T00:56:19.014Z,44.50
2019-03-05T00:58:50.804Z,44.60
2019-03-05T01:01:25.582Z,44.80
2019-03-05T01:04:15.130Z,45.00
2019-03-05T01:06:44.034Z,45.10
2019-03-05T01:09:16.636Z,45.10
2019-03-05T01:11:45.478Z,45.30
2019-03-05T01:14:14.973Z,45.30
2019-03-05T01:16:43.833Z,45.50
2019-03-05T01:19:12.671Z,45.50
2019-03-05T01:21:41.647Z,45.20
2019-03-05T01:24:10.753Z,44.90
2019-03-05T01:26:39.561Z,44.80
2019-03-05T01:29:08.443Z,44.60
2019-03-05T01:31:48.169Z,44.70
2019-03-05T01:34:27.462Z,44.50
2019-03-05T01:37:00.627Z,44.50
2019-03-05T01:39:31.090Z,44.60
2019-03-05T01:41:59.921Z,44.30
2019-03-05T01:44:28.765Z,44.70
2019-03-05T01:46:57.677Z,44.80
2019-03-05T01:49:26.504Z,45.10
2019-03-05T01:51:55.370Z,45.50
2019-03-05T01:54:24.270Z,46.10
2019-03-05T01:56:53.105Z,51.30
2019-03-05T01:59:21.945Z,55.50
2019-03-05T02:01:50.838Z,58.30
2019-03-05T02:04:20.637Z,60.60
2019-03-05T02:06:49.606Z,62.80
2019-03-05T02:09:18.515Z,64.50
2019-03-05T02:11:47.551Z,66.00
2019-03-05T02:14:16.503Z,67.20
2019-03-05T02:16:45.412Z,68.00
2019-03-05T02:19:36.351Z,69.10
2019-03-05T02:22:07.626Z,69.80
2019-03-05T02:25:01.643Z,70.00
2019-03-05T02:27:39.376Z,70.60
2019-03-05T02:30:32.543Z,71.30
2019-03-05T02:33:13.179Z,72.00
2019-03-05T02:35:50.851Z,72.30
2019-03-05T02:38:34.610Z,72.90
2019-03-05T02:41:15.446Z,73.20
2019-03-05T02:44:03.760Z,73.80
2019-03-05T02:46:41.522Z,74.30
2019-03-05T02:49:16.084Z,74.60
2019-03-05T02:51:57.016Z,74.90
2019-03-05T02:54:48.090Z,75.20
2019-03-05T02:57:15.714Z,75.60
2019-03-05T02:59:44.554Z,75.40
2019-03-05T03:02:31.374Z,76.10
2019-03-05T03:05:04.562Z,75.80
2019-03-05T03:07:33.393Z,75.80
2019-03-05T03:10:17.813Z,75.50
2019-03-05T03:12:46.671Z,75.20
2019-03-05T03:15:15.698Z,76.00
2019-03-05T03:17:44.762Z,75.60
2019-03-05T03:20:15.121Z,75.80
2019-03-05T03:22:43.950Z,75.50
2019-03-05T03:25:17.500Z,76.90
2019-03-05T03:27:46.357Z,77.70
2019-03-05T03:30:17.120Z,78.90
2019-03-05T03:32:45.994Z,79.90
2019-03-05T03:35:15.907Z,79.00
2019-03-05T03:37:44.733Z,79.50
2019-03-05T03:40:16.309Z,80.50
2019-03-05T03:42:45.144Z,80.90
2019-03-05T03:45:16.275Z,81.50
2019-03-05T03:47:45.201Z,81.70
2019-03-05T03:50:14.430Z,82.20
2019-03-05T03:52:43.231Z,83.00
2019-03-05T03:55:14.175Z,82.50
2019-03-05T03:57:43.222Z,82.70
2019-03-05T04:00:20.074Z,83.40
2019-03-05T04:02:48.890Z,83.80
2019-03-05T04:05:17.740Z,82.90
2019-03-05T04:07:46.753Z,82.90
2019-03-05T04:10:16.382Z,83.00
2019-03-05T04:12:45.227Z,83.70
2019-03-05T04:15:16.118Z,82.60
2019-03-05T04:17:44.965Z,83.00
2019-03-05T04:20:17.063Z,83.80
2019-03-05T04:22:45.968Z,83.70
2019-03-05T04:25:14.833Z,83.40
2019-03-05T04:27:43.670Z,83.20
2019-03-05T04:30:14.150Z,83.20
2019-03-05T04:32:42.985Z,83.20
2019-03-05T04:35:12.829Z,84.00
2019-03-05T04:37:41.715Z,84.60
2019-03-05T04:40:12.145Z,84.70
2019-03-05T04:42:40.988Z,85.10
2019-03-05T04:45:35.031Z,85.10
2019-03-05T04:48:03.876Z,84.70
2019-03-05T04:50:34.282Z,84.10
2019-03-05T04:53:03.163Z,83.80
2019-03-05T04:55:31.986Z,83.60
2019-03-05T04:58:01.318Z,83.90
2019-03-05T05:00:30.206Z,83.90
2019-03-05T05:02:59.043Z,84.30
2019-03-05T05:05:27.870Z,83.40
2019-03-05T05:07:56.791Z,84.20
2019-03-05T05:10:25.632Z,85.60
2019-03-05T05:12:54.458Z,85.70
2019-03-05T05:15:29.108Z,86.30
2019-03-05T05:17:57.937Z,86.10
2019-03-05T05:20:26.888Z,86.50
2019-03-05T05:22:55.786Z,87.00
2019-03-05T05:25:24.724Z,86.90
2019-03-05T05:27:53.556Z,87.10
2019-03-05T05:30:33.831Z,86.60
2019-03-05T05:33:02.861Z,86.50
2019-03-05T05:35:31.695Z,85.90
2019-03-05T05:38:00.582Z,85.50
2019-03-05T05:40:34.737Z,85.90
2019-03-05T05:43:04.734Z,86.20
2019-03-05T05:45:36.824Z,85.00
2019-03-05T05:48:05.672Z,84.30
2019-03-05T05:50:34.571Z,84.70
2019-03-05T05:53:03.402Z,84.90
2019-03-05T05:55:32.248Z,85.20
2019-03-05T05:58:01.157Z,85.30
2019-03-05T06:00:30.288Z,85.90
2019-03-05T06:02:59.121Z,86.00
2019-03-05T06:05:28.007Z,86.10
2019-03-05T06:07:56.834Z,86.60
2019-03-05T06:10:26.514Z,86.10
2019-03-05T06:12:55.414Z,85.30
2019-03-05T06:15:24.269Z,85.30
2019-03-05T06:17:53.097Z,85.10
2019-03-05T06:20:21.980Z,85.10
2019-03-05T06:22:50.820Z,85.40
2019-03-05T06:25:19.660Z,84.90
2019-03-05T06:27:48.540Z,84.70
2019-03-05T06:30:19.458Z,84.90
2019-03-05T06:32:48.307Z,85.30
2019-03-05T06:35:17.898Z,84.40
2019-03-05T06:37:46.722Z,84.50
2019-03-05T06:40:18.243Z,84.30
2019-03-05T06:42:47.123Z,84.50
2019-03-05T06:45:18.037Z,84.80
2019-03-05T06:47:46.870Z,84.40
2019-03-05T06:50:17.666Z,84.60
2019-03-05T06:52:46.617Z,84.50
2019-03-05T06:55:16.514Z,84.70
2019-03-05T06:57:45.478Z,85.00
2019-03-05T07:00:26.849Z,85.10
2019-03-05T07:02:55.717Z,84.70
2019-03-05T07:06:00.781Z,83.80
2019-03-05T07:08:30.366Z,83.80
2019-03-05T07:11:17.337Z,83.20
2019-03-05T07:13:48.052Z,83.20
2019-03-05T07:16:22.411Z,83.40
2019-03-05T07:18:54.099Z,83.30
2019-03-05T07:21:50.407Z,83.20
2019-03-05T07:24:38.295Z,83.50
2019-03-05T07:27:07.227Z,82.50
2019-03-05T07:29:36.066Z,82.00
2019-03-05T07:32:05.178Z,82.60
2019-03-05T07:34:35.596Z,82.60
2019-03-05T07:37:05.933Z,83.10
2019-03-05T07:39:34.812Z,83.10
2019-03-05T07:42:03.764Z,83.50
2019-03-05T07:44:32.624Z,83.60
2019-03-05T07:47:01.503Z,83.60
2019-03-05T07:49:30.351Z,83.70
2019-03-05T07:51:59.185Z,83.00
2019-03-05T07:54:28.095Z,82.70
2019-03-05T07:56:56.934Z,81.60
2019-03-05T07:59:25.774Z,81.30
2019-03-05T08:01:54.617Z,81.20
2019-03-05T08:04:23.433Z,81.50
2019-03-05T08:06:52.276Z,80.40
2019-03-05T08:09:34.711Z,80.10
2019-03-05T08:12:12.313Z,79.30
2019-03-05T08:14:56.977Z,78.90
2019-03-05T08:17:26.109Z,79.50
2019-03-05T08:19:55.060Z,79.30
2019-03-05T08:22:23.958Z,79.30
2019-03-05T08:24:52.803Z,78.60
2019-03-05T08:27:21.603Z,77.90
2019-03-05T08:29:50.485Z,78.30
2019-03-05T08:32:19.345Z,78.60
2019-03-05T08:34:48.197Z,78.40
2019-03-05T08:37:17.093Z,78.10
2019-03-05T08:39:45.930Z,77.00
2019-03-05T08:42:14.781Z,76.90
2019-03-05T08:44:50.319Z,77.10
2019-03-05T08:47:14.170Z,76.30
2019-03-05T08:49:43.006Z,74.40
2019-03-05T08:52:12.092Z,73.70
2019-03-05T08:54:40.931Z,73.80
2019-03-05T08:57:09.723Z,73.60
2019-03-05T08:59:38.574Z,73.60
2019-03-05T09:02:07.512Z,74.00
2019-03-05T09:04:36.361Z,73.40
2019-03-05T09:07:05.254Z,70.50
2019-03-05T09:09:34.214Z,68.70
2019-03-05T09:12:03.256Z,64.90
2019-03-05T09:14:34.348Z,64.60
2019-03-05T09:17:02.694Z,65.10
2019-03-05T09:19:31.552Z,65.00
2019-03-05T09:22:00.440Z,64.40
2019-03-05T09:24:29.309Z,64.30
2019-03-05T09:26:58.147Z,61.70
2019-03-05T09:29:27.032Z,60.90
2019-03-05T09:31:55.867Z,62.20
2019-03-05T09:34:25.005Z,63.00
2019-03-05T09:36:53.938Z,61.90
2019-03-05T09:39:22.782Z,61.00
2019-03-05T09:41:51.618Z,60.90
2019-03-05T09:44:20.523Z,60.10
2019-03-05T09:46:49.350Z,59.50
2019-03-05T09:49:18.192Z,60.00
2019-03-05T09:51:47.084Z,62.20
2019-03-05T09:54:15.932Z,63.80
2019-03-05T09:56:44.768Z,65.00
2019-03-05T09:59:13.715Z,66.40
2019-03-05T10:01:42.863Z,65.80
2019-03-05T10:04:11.710Z,65.40
2019-03-05T10:06:40.583Z,62.60
2019-03-05T10:09:09.838Z,62.80
2019-03-05T10:11:38.670Z,63.80
2019-03-05T10:14:07.551Z,64.40
2019-03-05T10:16:36.394Z,65.70
2019-03-05T10:19:05.646Z,65.60
2019-03-05T10:21:45.507Z,65.10
2019-03-05T10:24:10.428Z,65.70
2019-03-05T10:26:36.289Z,66.10
2019-03-05T10:29:06.740Z,66.30
2019-03-05T10:31:35.588Z,66.20
2019-03-05T10:34:04.429Z,65.50
2019-03-05T10:36:33.350Z,64.80
2019-03-05T10:39:02.218Z,64.00
2019-03-05T10:41:31.159Z,63.70
2019-03-05T10:44:00.076Z,63.30
2019-03-05T10:46:28.911Z,61.90
2019-03-05T10:48:57.859Z,63.00
2019-03-05T10:51:26.761Z,63.60
2019-03-05T10:53:55.623Z,62.80
2019-03-05T10:56:24.468Z,64.30
2019-03-05T10:58:53.373Z,65.20
2019-03-05T11:01:22.213Z,66.40
2019-03-05T11:03:51.069Z,66.60
2019-03-05T11:06:20.025Z,67.20
2019-03-05T11:08:49.725Z,68.40
2019-03-05T11:11:18.553Z,68.00
2019-03-05T11:13:48.255Z,68.50
2019-03-05T11:16:17.209Z,68.80
2019-03-05T11:18:46.068Z,69.70
2019-03-05T11:21:14.985Z,70.70
2019-03-05T11:23:43.819Z,67.50
2019-03-05T11:26:12.666Z,69.80
2019-03-05T11:28:41.579Z,70.60
2019-03-05T11:31:10.428Z,73.30
2019-03-05T11:33:39.270Z,73.10
2019-03-05T11:36:08.252Z,73.00
2019-03-05T11:38:37.113Z,69.80
2019-03-05T11:41:06.046Z,66.50
2019-03-05T11:43:34.954Z,63.50
2019-03-05T11:46:05.013Z,62.20
2019-03-05T11:48:33.842Z,62.80
2019-03-05T11:51:02.766Z,68.70
2019-03-05T11:53:31.603Z,72.40
2019-03-05T11:56:00.440Z,68.80
2019-03-05T11:58:29.337Z,66.80
2019-03-05T12:00:59.766Z,71.30
2019-03-05T12:03:28.602Z,71.00
2019-03-05T12:05:57.485Z,65.40
2019-03-05T12:08:26.319Z,63.20
2019-03-05T12:10:55.172Z,66.30
2019-03-05T12:13:24.275Z,69.60
2019-03-05T12:15:53.133Z,72.40
2019-03-05T12:18:21.970Z,74.50
2019-03-05T12:20:50.868Z,73.90
2019-03-05T12:23:20.311Z,74.70
2019-03-05T12:25:49.155Z,74.20
2019-03-05T12:28:18.033Z,72.90
2019-03-05T12:30:46.846Z,71.70
2019-03-05T12:33:15.666Z,70.70
2019-03-05T12:35:44.580Z,70.50
2019-03-05T12:38:13.426Z,69.40
2019-03-05T12:40:42.293Z,67.70
2019-03-05T12:43:11.200Z,67.60
2019-03-05T12:45:40.001Z,67.20
2019-03-05T12:48:08.805Z,67.90
2019-03-05T12:50:38.618Z,68.00
2019-03-05T12:53:07.460Z,67.70
2019-03-05T12:55:36.310Z,67.70
2019-03-05T12:58:05.414Z,68.10
2019-03-05T13:00:35.851Z,68.70
2019-03-05T13:03:05.007Z,68.80
2019-03-05T13:05:33.890Z,69.00
2019-03-05T13:08:02.835Z,68.70
2019-03-05T13:10:37.417Z,69.30
2019-03-05T13:13:06.423Z,68.90
2019-03-05T13:15:37.935Z,69.40
2019-03-05T13:18:07.102Z,70.80
2019-03-05T13:20:35.995Z,71.20
2019-03-05T13:23:09.220Z,70.30
2019-03-05T13:25:38.110Z,70.20
2019-03-05T13:28:06.206Z,70.90
2019-03-05T13:30:35.042Z,69.40
2019-03-05T13:33:03.899Z,70.20
2019-03-05T13:35:32.775Z,71.60
2019-03-05T13:38:07.921Z,72.60
2019-03-05T13:40:38.534Z,73.40
2019-03-05T13:43:06.156Z,74.10
2019-03-05T13:45:35.225Z,74.00
2019-03-05T13:48:15.017Z,73.80
2019-03-05T13:50:52.512Z,74.40
2019-03-05T13:53:32.971Z,75.20
2019-03-05T13:56:24.065Z,75.80
2019-03-05T13:59:15.210Z,76.50
2019-03-05T14:01:44.059Z,77.10
2019-03-05T14:04:27.826Z,77.10
2019-03-05T14:07:05.618Z,78.10
2019-03-05T14:09:33.288Z,79.40
2019-03-05T14:12:02.147Z,79.90
2019-03-05T14:14:31.403Z,80.20
2019-03-05T14:17:10.764Z,82.60
2019-03-05T14:19:39.609Z,83.20
2019-03-05T14:22:08.455Z,83.00
2019-03-05T14:24:37.878Z,81.80
2019-03-05T14:27:06.736Z,79.50
2019-03-05T14:29:35.577Z,80.40
2019-03-05T14:32:04.476Z,81.40
2019-03-05T14:34:33.337Z,82.00
2019-03-05T14:37:02.198Z,81.20
2019-03-05T14:39:33.905Z,81.80
2019-03-05T14:42:03.775Z,82.30
2019-03-05T14:44:39.777Z,82.40
2019-03-05T14:47:05.117Z,82.40
2019-03-05T14:49:33.950Z,81.90
2019-03-05T14:52:02.930Z,81.50
2019-03-05T14:54:31.819Z,81.70
2019-03-05T14:57:00.683Z,81.60
2019-03-05T14:59:29.543Z,82.10
2019-03-05T15:01:58.440Z,82.60
2019-03-05T15:04:27.306Z,82.70
2019-03-05T15:06:56.131Z,81.70
2019-03-05T15:09:25.129Z,81.80
2019-03-05T15:11:54.022Z,81.20
2019-03-05T15:14:22.920Z,81.70
2019-03-05T15:16:51.909Z,82.10
2019-03-05T15:19:21.814Z,81.90
2019-03-05T15:21:50.914Z,81.80
2019-03-05T15:24:19.781Z,82.30
2019-03-05T15:26:48.644Z,79.10
2019-03-05T15:29:17.496Z,77.90
2019-03-05T15:31:46.478Z,78.60
2019-03-05T15:34:15.357Z,79.30
2019-03-05T15:36:44.206Z,80.40
2019-03-05T15:39:13.429Z,81.30
2019-03-05T15:41:45.848Z,81.60
2019-03-05T15:44:12.780Z,82.30
2019-03-05T15:46:41.670Z,82.40
2019-03-05T15:49:10.494Z,82.40
2019-03-05T15:51:39.360Z,82.40
2019-03-05T15:54:08.287Z,81.80
2019-03-05T15:56:37.128Z,81.60
2019-03-05T15:59:05.994Z,82.50
2019-03-05T16:01:34.891Z,83.00
2019-03-05T16:04:03.822Z,83.30
2019-03-05T16:06:34.062Z,83.40
2019-03-05T16:09:03.654Z,83.80
2019-03-05T16:11:34.058Z,84.90
2019-03-05T16:14:03.091Z,84.00
2019-03-05T16:16:32.209Z,83.60
2019-03-05T16:19:01.051Z,83.30
2019-03-05T16:21:29.887Z,83.80
2019-03-05T16:24:01.636Z,83.70
2019-03-05T16:26:29.302Z,84.10
2019-03-05T16:28:58.153Z,84.30
2019-03-05T16:31:28.952Z,84.70
2019-03-05T16:33:59.373Z,84.90
2019-03-05T16:36:30.565Z,84.30
2019-03-05T16:39:01.208Z,84.10
2019-03-05T16:41:46.582Z,84.30
2019-03-05T16:44:28.794Z,82.90
2019-03-05T16:47:15.779Z,83.50
2019-03-05T16:49:46.246Z,84.10
2019-03-05T16:52:22.455Z,84.40
2019-03-05T16:54:55.847Z,84.30
2019-03-05T16:57:42.713Z,84.40
2019-03-05T17:00:15.480Z,84.90
2019-03-05T17:02:54.938Z,85.30
2019-03-05T17:05:42.980Z,85.80
2019-03-05T17:08:19.428Z,85.70
2019-03-05T17:11:08.624Z,85.80
2019-03-05T17:13:37.468Z,86.50
2019-03-05T17:16:06.335Z,86.50
2019-03-05T17:18:35.236Z,86.90
2019-03-05T17:21:04.199Z,86.60
2019-03-05T17:23:33.043Z,87.00
2019-03-05T17:26:01.935Z,87.30
2019-03-05T17:28:30.798Z,87.90
2019-03-05T17:30:59.966Z,88.30
2019-03-05T17:33:29.995Z,88.60
2019-03-05T17:35:58.851Z,88.60
2019-03-05T17:38:27.695Z,88.50
2019-03-05T17:40:56.589Z,88.20
2019-03-05T17:43:25.656Z,88.10
2019-03-05T17:45:54.512Z,87.70
2019-03-05T17:48:23.426Z,87.60
2019-03-05T17:50:52.281Z,87.80
2019-03-05T17:53:21.137Z,87.70
2019-03-05T17:55:50.064Z,87.50
2019-03-05T17:58:18.908Z,87.80
2019-03-05T18:00:49.373Z,87.30
2019-03-05T18:03:18.271Z,86.00
2019-03-05T18:05:47.144Z,86.00
2019-03-05T18:08:15.980Z,86.10
2019-03-05T18:10:44.871Z,86.40
2019-03-05T18:13:13.729Z,86.90
2019-03-05T18:15:42.574Z,87.30
2019-03-05T18:18:11.504Z,87.50
2019-03-05T18:20:40.331Z,87.50
2019-03-05T18:23:09.218Z,87.90
2019-03-05T18:25:38.116Z,88.00
2019-03-05T18:28:06.971Z,88.20
2019-03-05T18:30:35.814Z,87.90
2019-03-05T18:33:04.716Z,87.80
2019-03-05T18:35:34.440Z,88.10
2019-03-05T18:38:03.302Z,88.70
2019-03-05T18:40:32.210Z,89.00
2019-03-05T18:43:01.191Z,89.50
2019-03-05T18:45:37.985Z,89.90
2019-03-05T18:48:06.852Z,89.40
2019-03-05T18:50:35.716Z,88.50
2019-03-05T18:53:05.916Z,88.40
2019-03-05T18:55:34.788Z,88.60
2019-03-05T18:58:03.625Z,88.70
2019-03-05T19:00:36.763Z,88.70
2019-03-05T19:03:14.065Z,88.80
2019-03-05T19:05:42.975Z,88.90
2019-03-05T19:08:11.855Z,89.10
2019-03-05T19:10:40.723Z,89.20
2019-03-05T19:13:09.642Z,89.00
2019-03-05T19:15:38.492Z,88.60
2019-03-05T19:18:07.447Z,88.60
2019-03-05T19:20:36.450Z,89.60
2019-03-05T19:23:05.316Z,89.00
2019-03-05T19:25:40.075Z,89.10
2019-03-05T19:28:11.348Z,89.50
2019-03-05T19:30:45.480Z,90.10
2019-03-05T19:33:14.342Z,90.30
2019-03-05T19:35:43.192Z,90.40
2019-03-05T19:38:12.134Z,90.80
2019-03-05T19:40:45.659Z,90.90
2019-03-05T19:43:14.518Z,90.90
2019-03-05T19:45:43.411Z,90.70
2019-03-05T19:48:12.267Z,90.80
2019-03-05T19:50:41.407Z,90.90
2019-03-05T19:53:10.305Z,91.20
2019-03-05T19:55:39.147Z,91.60
2019-03-05T19:58:12.386Z,91.70
2019-03-05T20:01:04.672Z,91.80
2019-03-05T20:03:33.506Z,91.60
2019-03-05T20:06:02.362Z,91.50
2019-03-05T20:08:39.504Z,91.70
2019-03-05T20:11:01.768Z,91.80
2019-03-05T20:13:30.612Z,91.90
2019-03-05T20:15:59.515Z,91.70
2019-03-05T20:18:28.366Z,91.70
2019-03-05T20:20:57.213Z,91.30
2019-03-05T20:23:26.304Z,90.80
2019-03-05T20:25:55.174Z,90.80
2019-03-05T20:28:24.050Z,91.00
2019-03-05T20:30:53.080Z,91.10
2019-03-05T20:33:21.924Z,91.30
2019-03-05T20:35:51.093Z,91.20
2019-03-05T20:38:20.095Z,90.90
2019-03-05T20:40:48.936Z,91.40
2019-03-05T20:43:17.793Z,91.60
2019-03-05T20:45:52.050Z,91.60
2019-03-05T20:48:20.887Z,91.70
2019-03-05T20:50:49.744Z,91.60
2019-03-05T20:53:18.635Z,91.80
2019-03-05T20:55:47.497Z,91.80
2019-03-05T20:58:16.354Z,91.90
2019-03-05T21:00:45.562Z,91.80
2019-03-05T21:03:14.426Z,91.80
2019-03-05T21:05:45.143Z,91.90
2019-03-05T21:08:14.141Z,91.90
2019-03-05T21:10:42.992Z,91.80
2019-03-05T21:13:12.030Z,91.30
2019-03-05T21:15:40.930Z,91.40
2019-03-05T21:18:11.773Z,91.40
2019-03-05T21:20:40.658Z,91.40
2019-03-05T21:23:09.561Z,91.30
2019-03-05T21:25:38.418Z,91.20
2019-03-05T21:28:07.259Z,91.10
2019-03-05T21:30:36.391Z,90.80
2019-03-05T21:33:05.242Z,90.70
2019-03-05T21:35:34.101Z,91.10
2019-03-05T21:38:02.997Z,91.50
2019-03-05T21:40:33.067Z,91.70
2019-03-05T21:43:02.025Z,91.30
2019-03-05T21:45:39.270Z,91.30
2019-03-05T21:48:08.122Z,91.00
2019-03-05T21:50:36.984Z,91.00
2019-03-05T21:53:06.207Z,91.00
2019-03-05T21:55:35.062Z,91.10
2019-03-05T21:58:04.209Z,91.10
2019-03-05T22:00:34.297Z,91.20
2019-03-05T22:03:03.345Z,91.40
2019-03-05T22:05:32.196Z,91.30
2019-03-05T22:08:01.128Z,91.30
2019-03-05T22:10:29.981Z,91.30
2019-03-05T22:12:58.829Z,91.60
2019-03-05T22:15:35.429Z,91.80
2019-03-05T22:18:04.303Z,91.80
2019-03-05T22:20:33.156Z,91.90
2019-03-05T22:23:02.190Z,91.90
2019-03-05T22:25:31.061Z,91.60
2019-03-05T22:27:59.913Z,91.30
2019-03-05T22:30:36.695Z,91.40
2019-03-05T22:33:05.683Z,91.70
2019-03-05T22:35:34.492Z,92.20
2019-03-05T22:38:03.382Z,92.50
2019-03-05T22:40:32.353Z,92.00
2019-03-05T22:43:01.196Z,92.00
2019-03-05T22:45:36.377Z,92.10
2019-03-05T22:48:05.232Z,91.90
2019-03-05T22:50:34.078Z,91.80
2019-03-05T22:53:03.249Z,91.70
2019-03-05T22:55:32.209Z,91.70
2019-03-05T22:58:01.081Z,91.90
2019-03-05T23:01:01.440Z,91.80
2019-03-05T23:03:31.587Z,91.70
2019-03-05T23:06:03.127Z,91.60
2019-03-05T23:08:32.060Z,91.70
2019-03-05T23:11:01.529Z,90.90
2019-03-05T23:13:30.477Z,91.10
2019-03-05T23:15:59.776Z,91.00
2019-03-05T23:18:28.730Z,90.90
2019-03-05T23:20:57.692Z,91.10
2019-03-05T23:23:26.594Z,91.20
2019-03-05T23:25:55.467Z,91.40
2019-03-05T23:28:24.604Z,91.30
2019-03-05T23:30:53.518Z,91.40
2019-03-05T23:33:22.360Z,91.70
2019-03-05T23:35:51.312Z,92.00
2019-03-05T23:38:20.223Z,92.10
2019-03-05T23:40:49.495Z,92.50
2019-03-05T23:43:18.345Z,92.70
2019-03-05T23:45:47.454Z,92.60
2019-03-05T23:48:16.304Z,92.70
2019-03-05T23:50:45.149Z,93.30
2019-03-05T23:53:14.373Z,92.10
2019-03-05T23:55:43.216Z,91.50
2019-03-05T23:58:12.076Z,91.30
